CheckWX is a tool to help pilots better visualize weather data.  It is not intended as a substitute for an official pre-flight weather briefing.

21:04:05 UTC

VTUO METAR
Buri Ram Airport
Thailand
Current

8 hours ago

VTUO 041300Z 00000KT 9000 FEW020 OVC100 26/25 Q1008 RETS NOSIG
Observed
Jun-4 @ 13:00 UTC
Visibility
8996 meters
Flight Rules
VFR
Cloud Levels
  • Few at 2,000' AGL
  • Overcast at 10,000' AGL
Temperature
26°C / 79°F
Dewpoint
25°C / 77°F
Humidity
94%
Altimeter
29.76" Hg
Pressure
1007.92 hPa
Previous

9 hours ago

VTUO 041200Z 21007KT 9000 TS VCSH FEW012 SCT020CB BKN100 27/24 Q1007 RERA NOSIG
Observed
Jun-4 @ 12:00 UTC
Wind
  • 210° at 7 KTS
Visibility
8996 meters
Flight Rules
VFR
Conditions
Thunderstorm, Area Showers
Cloud Levels
  • Few at 1,200' AGL
  • Scattered at 2,000' AGL
  • Broken at 10,000' AGL
Temperature
27°C / 81°F
Dewpoint
24°C / 75°F
Humidity
84%
Altimeter
29.73" Hg
Pressure
1006.92 hPa
Previous

10 hours ago

VTUO 041100Z 15004KT 130V190 9999 TS FEW018 SCT020CB 32/25 Q1006 TEMPO FM1130 TL1245 19010G22KT 3000 TSRA
Observed
Jun-4 @ 11:00 UTC
Wind
  • 150° at 4 KTS
Visibility
10,000+ meters
Flight Rules
VFR
Conditions
Thunderstorm
Cloud Levels
  • Few at 1,800' AGL
  • Scattered at 2,000' AGL
Temperature
32°C / 90°F
Dewpoint
25°C / 77°F
Humidity
67%
Altimeter
29.7" Hg
Pressure
1005.92 hPa